createdAt,value
2023-02-13T00:02:02.960Z,102502.53
2023-02-13T00:05:17.624Z,102498.16
2023-02-13T00:08:22.844Z,102505.69
2023-02-13T00:11:29.371Z,102494.97
2023-02-13T00:14:37.440Z,102501.59
2023-02-13T00:17:42.797Z,102513.25
2023-02-13T00:21:00.009Z,102508.16
2023-02-13T00:24:05.651Z,102503.84
2023-02-13T00:27:13.163Z,102499.47
2023-02-13T00:30:18.960Z,102489.59
2023-02-13T00:33:27.155Z,102495.53
2023-02-13T00:36:32.462Z,102495.81
2023-02-13T00:39:37.511Z,102493.28
2023-02-13T00:42:44.058Z,102489.69
2023-02-13T00:45:49.524Z,102487.97
2023-02-13T00:48:54.699Z,102478.38
2023-02-13T00:51:59.676Z,102475.91
2023-02-13T00:55:04.903Z,102472.81
2023-02-13T00:58:13.660Z,102477.53
2023-02-13T01:01:18.947Z,102469.97
2023-02-13T01:04:24.121Z,102461.44
2023-02-13T01:07:30.055Z,102454.34
2023-02-13T01:10:35.442Z,102454.94
2023-02-13T01:13:42.213Z,102463.44
2023-02-13T01:16:47.624Z,102453.56
2023-02-13T01:19:52.784Z,102457.75
2023-02-13T01:22:58.523Z,102459.41
2023-02-13T01:26:05.610Z,102450.28
2023-02-13T01:29:14.526Z,102450.59
2023-02-13T01:32:19.615Z,102450.31
2023-02-13T01:35:25.068Z,102456.16
2023-02-13T01:38:30.147Z,102449.16
2023-02-13T01:41:35.556Z,102446.03
2023-02-13T01:44:53.942Z,102448.44
2023-02-13T01:48:01.148Z,102450.06
2023-02-13T01:51:10.373Z,102437.31
2023-02-13T01:54:17.102Z,102440.56
2023-02-13T01:57:24.862Z,102436.56
2023-02-13T02:00:31.734Z,102443.34
2023-02-13T02:03:39.129Z,102439.97
2023-02-13T02:06:50.423Z,102441.91
2023-02-13T02:10:06.391Z,102443.38
2023-02-13T02:13:14.236Z,102436.53
2023-02-13T02:16:20.824Z,102444.53
2023-02-13T02:19:35.070Z,102446.09
2023-02-13T02:23:05.204Z,102438.28
2023-02-13T02:26:42.494Z,102446.19
2023-02-13T02:30:25.929Z,102439.75
2023-02-13T02:33:38.499Z,102424.81
2023-02-13T02:37:00.537Z,102433.16
2023-02-13T02:40:19.874Z,102432.28
2023-02-13T02:43:34.081Z,102442.63
2023-02-13T02:47:08.325Z,102440.81
2023-02-13T02:50:34.086Z,102435.03
2023-02-13T02:53:43.256Z,102435.72
2023-02-13T02:56:50.928Z,102444.63
2023-02-13T03:00:14.097Z,102442.91
2023-02-13T03:03:39.375Z,102439.47
2023-02-13T03:06:50.462Z,102445.28
2023-02-13T03:10:16.377Z,102436.91
2023-02-13T03:13:35.748Z,102443.84
2023-02-13T03:16:58.072Z,102440.34
2023-02-13T03:20:34.864Z,102429.34
2023-02-13T03:23:48.682Z,102423.81
2023-02-13T03:26:59.656Z,102422.13
2023-02-13T03:30:13.122Z,102419.63
2023-02-13T03:33:29.942Z,102420.56
2023-02-13T03:37:06.335Z,102424.38
2023-02-13T03:40:17.162Z,102428.19
2023-02-13T03:43:22.512Z,102430.66
2023-02-13T03:46:30.430Z,102434.84
2023-02-13T03:49:55.977Z,102431.78
2023-02-13T03:53:04.307Z,102422.47
2023-02-13T03:56:29.967Z,102407.13
2023-02-13T03:59:37.700Z,102415.47
2023-02-13T04:02:53.469Z,102412.41
2023-02-13T04:06:02.928Z,102398.94
2023-02-13T04:09:08.419Z,102412.41
2023-02-13T04:12:19.635Z,102414.06
2023-02-13T04:15:29.604Z,102412.38
2023-02-13T04:18:36.042Z,102408.31
2023-02-13T04:21:42.113Z,102410.47
2023-02-13T04:24:48.224Z,102390.38
2023-02-13T04:27:54.465Z,102414.50
2023-02-13T04:31:01.125Z,102401.72
2023-02-13T04:34:06.269Z,102392.34
2023-02-13T04:37:11.521Z,102395.81
2023-02-13T04:40:16.685Z,102396.03
2023-02-13T04:43:23.572Z,102384.16
2023-02-13T04:46:29.871Z,102380.94
2023-02-13T04:49:34.964Z,102393.59
2023-02-13T04:52:39.973Z,102402.03
2023-02-13T04:55:45.524Z,102405.69
2023-02-13T04:58:51.998Z,102408.66
2023-02-13T05:01:59.324Z,102402.03
2023-02-13T05:05:04.122Z,102412.81
2023-02-13T05:08:11.106Z,102417.97
2023-02-13T05:11:16.181Z,102415.94
2023-02-13T05:14:22.743Z,102431.19
2023-02-13T05:17:28.402Z,102428.47
2023-02-13T05:20:33.665Z,102432.84
2023-02-13T05:23:38.118Z,102425.81
2023-02-13T05:26:43.171Z,102424.84
2023-02-13T05:29:49.659Z,102418.81
2023-02-13T05:32:55.103Z,102427.22
2023-02-13T05:36:00.730Z,102421.34
2023-02-13T05:39:06.810Z,102440.63
2023-02-13T05:42:12.283Z,102443.03
2023-02-13T05:45:18.978Z,102451.38
2023-02-13T05:48:24.213Z,102442.16
2023-02-13T05:51:29.584Z,102434.38
2023-02-13T05:54:34.644Z,102431.16
2023-02-13T05:57:39.782Z,102434.63
2023-02-13T06:00:46.424Z,102456.56
2023-02-13T06:03:51.712Z,102471.56
2023-02-13T06:06:56.791Z,102491.88
2023-02-13T06:10:02.064Z,102481.63
2023-02-13T06:13:07.324Z,102485.66
2023-02-13T06:16:16.081Z,102486.97
2023-02-13T06:19:21.230Z,102493.28
2023-02-13T06:22:26.514Z,102509.19
2023-02-13T06:25:31.900Z,102517.47
2023-02-13T06:28:37.514Z,102530.56
2023-02-13T06:31:45.038Z,102516.09
2023-02-13T06:34:50.302Z,102514.53
2023-02-13T06:37:55.493Z,102509.47
2023-02-13T06:41:03.100Z,102502.66
2023-02-13T06:44:08.399Z,102505.34
2023-02-13T06:47:19.943Z,102507.28
2023-02-13T06:50:25.266Z,102510.38
2023-02-13T06:53:30.547Z,102494.41
2023-02-13T06:56:35.598Z,102496.16
2023-02-13T06:59:40.849Z,102501.91
2023-02-13T07:02:48.338Z,102497.53
2023-02-13T07:05:53.624Z,102497.84
2023-02-13T07:08:58.766Z,102508.94
2023-02-13T07:12:05.808Z,102512.94
2023-02-13T07:15:11.429Z,102516.19
2023-02-13T07:18:17.998Z,102518.75
2023-02-13T07:21:23.347Z,102504.47
2023-02-13T07:24:28.340Z,102504.66
2023-02-13T07:27:33.676Z,102498.78
2023-02-13T07:30:40.582Z,102491.16
2023-02-13T07:33:49.445Z,102497.94
2023-02-13T07:36:54.770Z,102503.03
2023-02-13T07:39:59.886Z,102508.19
2023-02-13T07:43:05.078Z,102508.19
2023-02-13T07:46:12.663Z,102505.00
2023-02-13T07:49:19.199Z,102493.03
2023-02-13T07:52:24.487Z,102490.69
2023-02-13T07:55:29.989Z,102500.69
2023-02-13T07:58:35.117Z,102506.72
2023-02-13T08:01:40.065Z,102495.84
2023-02-13T08:04:47.318Z,102506.09
2023-02-13T08:07:54.791Z,102528.00
2023-02-13T08:11:21.892Z,102538.16
2023-02-13T08:14:28.212Z,102536.66
2023-02-13T08:17:33.253Z,102554.38
2023-02-13T08:20:39.659Z,102550.09
2023-02-13T08:23:44.765Z,102556.13
2023-02-13T08:26:50.159Z,102547.78
2023-02-13T08:29:55.173Z,102549.66
2023-02-13T08:33:00.405Z,102555.66
2023-02-13T08:36:07.691Z,102574.16
2023-02-13T08:39:13.076Z,102578.69
2023-02-13T08:42:18.531Z,102582.03
2023-02-13T08:45:23.526Z,102587.94
2023-02-13T08:48:28.872Z,102583.03
2023-02-13T08:51:35.028Z,102585.88
2023-02-13T08:54:40.080Z,102591.91
2023-02-13T08:57:45.099Z,102589.44
2023-02-13T09:00:50.244Z,102594.66
2023-02-13T09:03:56.108Z,102602.47
2023-02-13T09:07:02.461Z,102590.94
2023-02-13T09:10:08.839Z,102586.84
2023-02-13T09:13:13.968Z,102578.69
2023-02-13T09:16:19.139Z,102574.75
2023-02-13T09:19:24.497Z,102589.19
2023-02-13T09:22:31.735Z,102593.78
2023-02-13T09:25:36.461Z,102573.69
2023-02-13T09:28:42.058Z,102579.91
2023-02-13T09:31:47.318Z,102560.59
2023-02-13T09:34:52.567Z,102570.06
2023-02-13T09:38:01.366Z,102570.25
2023-02-13T09:41:09.588Z,102569.53
2023-02-13T09:44:34.029Z,102572.34
2023-02-13T09:47:41.997Z,102569.03
2023-02-13T09:50:47.028Z,102554.00
2023-02-13T09:53:56.287Z,102560.69
2023-02-13T09:57:05.444Z,102559.28
2023-02-13T10:00:17.144Z,102565.94
2023-02-13T10:03:28.882Z,102565.13
2023-02-13T10:06:36.997Z,102568.84
2023-02-13T10:09:52.531Z,102572.22
2023-02-13T10:13:16.932Z,102578.97
2023-02-13T10:16:23.940Z,102575.63
2023-02-13T10:19:37.780Z,102578.28
2023-02-13T10:22:49.150Z,102584.34
2023-02-13T10:25:58.650Z,102581.84
2023-02-13T10:29:25.219Z,102590.34
2023-02-13T10:32:36.488Z,102598.78
2023-02-13T10:35:41.581Z,102595.53
2023-02-13T10:38:51.768Z,102598.28
2023-02-13T10:42:18.004Z,102596.63
2023-02-13T10:45:47.814Z,102608.56
2023-02-13T10:49:15.408Z,102603.41
2023-02-13T10:52:32.287Z,102604.41
2023-02-13T10:56:02.883Z,102596.06
2023-02-13T10:59:20.290Z,102603.75
2023-02-13T11:02:27.589Z,102607.72
2023-02-13T11:05:34.459Z,102616.41
2023-02-13T11:08:43.448Z,102616.63
2023-02-13T11:11:48.807Z,102611.50
2023-02-13T11:15:25.219Z,102613.22
2023-02-13T11:18:34.370Z,102604.72
2023-02-13T11:21:40.348Z,102613.31
2023-02-13T11:24:54.012Z,102623.47
2023-02-13T11:28:10.584Z,102628.78
2023-02-13T11:31:26.075Z,102625.44
2023-02-13T11:34:32.873Z,102622.28
2023-02-13T11:37:38.323Z,102629.91
2023-02-13T11:40:46.120Z,102622.31
2023-02-13T11:43:54.775Z,102627.50
2023-02-13T11:47:03.246Z,102626.75
2023-02-13T11:50:21.553Z,102622.50
2023-02-13T11:53:29.253Z,102629.47
2023-02-13T11:57:04.060Z,102640.38
2023-02-13T12:00:37.619Z,102644.00
2023-02-13T12:03:44.435Z,102643.16
2023-02-13T12:07:03.942Z,102649.00
2023-02-13T12:10:18.512Z,102649.09
2023-02-13T12:13:29.173Z,102654.19
2023-02-13T12:16:37.426Z,102657.53
2023-02-13T12:19:45.755Z,102660.97
2023-02-13T12:22:59.299Z,102651.94
2023-02-13T12:26:12.337Z,102656.19
2023-02-13T12:29:34.311Z,102659.63
2023-02-13T12:32:47.541Z,102660.47
2023-02-13T12:35:59.476Z,102659.69
2023-02-13T12:39:19.257Z,102657.38
2023-02-13T12:42:35.288Z,102656.41
2023-02-13T12:45:44.226Z,102669.09
2023-02-13T12:48:57.708Z,102679.31
2023-02-13T12:52:16.420Z,102677.69
2023-02-13T12:55:35.039Z,102680.28
2023-02-13T12:59:12.790Z,102690.38
2023-02-13T13:02:53.518Z,102698.13
2023-02-13T13:06:15.457Z,102698.06
2023-02-13T13:09:56.854Z,102694.66
2023-02-13T13:13:08.715Z,102694.66
2023-02-13T13:16:19.161Z,102698.97
2023-02-13T13:19:31.217Z,102692.09
2023-02-13T13:22:41.636Z,102691.22
2023-02-13T13:25:54.404Z,102691.31
2023-02-13T13:29:01.272Z,102704.84
2023-02-13T13:32:09.285Z,102704.97
2023-02-13T13:35:16.577Z,102713.78
2023-02-13T13:38:27.330Z,102707.75
2023-02-13T13:41:40.250Z,102707.56
2023-02-13T13:44:52.338Z,102710.00
2023-02-13T13:48:15.730Z,102699.88
2023-02-13T13:51:21.376Z,102710.78
2023-02-13T13:54:37.822Z,102710.91
2023-02-13T13:58:05.581Z,102718.25
2023-02-13T14:01:29.404Z,102714.00
2023-02-13T14:04:41.722Z,102715.88
2023-02-13T14:07:47.826Z,102717.53
2023-02-13T14:11:25.640Z,102722.56
2023-02-13T14:14:56.269Z,102721.97
2023-02-13T14:18:02.035Z,102725.03
2023-02-13T14:21:07.489Z,102725.00
2023-02-13T14:24:21.078Z,102726.66
2023-02-13T14:27:27.836Z,102724.88
2023-02-13T14:30:36.079Z,102728.38
2023-02-13T14:33:41.588Z,102728.97
2023-02-13T14:36:48.839Z,102728.91
2023-02-13T14:40:28.561Z,102734.56
2023-02-13T14:43:47.680Z,102737.84
2023-02-13T14:46:54.635Z,102732.72
2023-02-13T14:50:00.970Z,102737.00
2023-02-13T14:53:10.310Z,102728.25
2023-02-13T14:56:18.893Z,102720.47
2023-02-13T14:59:27.482Z,102718.81
2023-02-13T15:02:37.052Z,102729.59
2023-02-13T15:05:42.347Z,102723.75
2023-02-13T15:08:50.781Z,102738.81
2023-02-13T15:11:55.930Z,102745.31
2023-02-13T15:15:02.515Z,102741.53
2023-02-13T15:18:12.906Z,102743.59
2023-02-13T15:21:20.354Z,102752.13
2023-02-13T15:24:26.130Z,102747.69
2023-02-13T15:27:33.261Z,102743.66
2023-02-13T15:30:39.629Z,102748.09
2023-02-13T15:33:49.342Z,102756.16
2023-02-13T15:36:55.584Z,102749.06
2023-02-13T15:40:17.469Z,102759.72
2023-02-13T15:43:32.165Z,102756.91
2023-02-13T15:46:38.722Z,102756.00
2023-02-13T15:49:49.848Z,102763.13
2023-02-13T15:52:55.838Z,102763.66
2023-02-13T15:56:03.983Z,102776.28
2023-02-13T15:59:11.794Z,102775.69
2023-02-13T16:02:20.557Z,102778.66
2023-02-13T16:05:39.309Z,102777.38
2023-02-13T16:08:47.181Z,102786.19
2023-02-13T16:11:52.555Z,102784.56
2023-02-13T16:15:02.349Z,102789.81
2023-02-13T16:18:13.528Z,102800.16
2023-02-13T16:21:24.296Z,102802.25
2023-02-13T16:24:31.139Z,102804.53
2023-02-13T16:27:36.857Z,102801.88
2023-02-13T16:30:43.098Z,102797.50
2023-02-13T16:33:48.229Z,102793.38
2023-02-13T16:36:54.925Z,102800.09
2023-02-13T16:40:30.892Z,102798.34
2023-02-13T16:43:41.367Z,102803.13
2023-02-13T16:46:56.561Z,102819.38
2023-02-13T16:50:02.287Z,102813.38
2023-02-13T16:53:09.081Z,102804.94
2023-02-13T16:56:14.691Z,102818.44
2023-02-13T16:59:32.556Z,102819.19
2023-02-13T17:02:40.034Z,102823.31
2023-02-13T17:05:45.403Z,102814.06
2023-02-13T17:08:52.426Z,102824.13
2023-02-13T17:11:57.686Z,102822.31
2023-02-13T17:15:03.181Z,102829.19
2023-02-13T17:18:08.225Z,102828.28
2023-02-13T17:21:14.027Z,102835.19
2023-02-13T17:24:21.126Z,102829.13
2023-02-13T17:27:26.203Z,102843.19
2023-02-13T17:30:33.427Z,102851.97
2023-02-13T17:33:40.161Z,102838.88
2023-02-13T17:36:45.439Z,102840.91
2023-02-13T17:39:51.960Z,102839.69
2023-02-13T17:42:58.295Z,102851.53
2023-02-13T17:46:03.132Z,102852.91
2023-02-13T17:49:08.874Z,102851.41
2023-02-13T17:52:17.429Z,102859.81
2023-02-13T17:55:25.729Z,102863.16
2023-02-13T17:58:30.875Z,102865.53
2023-02-13T18:01:36.195Z,102862.22
2023-02-13T18:04:43.983Z,102860.47
2023-02-13T18:07:51.020Z,102879.59
2023-02-13T18:10:57.789Z,102877.91
2023-02-13T18:14:03.068Z,102884.78
2023-02-13T18:17:08.412Z,102892.56
2023-02-13T18:20:16.449Z,102888.47
2023-02-13T18:23:23.721Z,102891.41
2023-02-13T18:26:30.347Z,102886.56
2023-02-13T18:29:40.325Z,102890.59
2023-02-13T18:32:45.160Z,102889.03
2023-02-13T18:35:50.316Z,102887.34
2023-02-13T18:38:55.601Z,102880.25
2023-02-13T18:42:03.845Z,102898.25
2023-02-13T18:45:13.846Z,102900.88
2023-02-13T18:48:19.151Z,102908.97
2023-02-13T18:51:24.597Z,102911.91
2023-02-13T18:54:29.725Z,102918.31
2023-02-13T18:57:37.814Z,102918.41
2023-02-13T19:00:42.973Z,102914.16
2023-02-13T19:03:49.387Z,102921.72
2023-02-13T19:06:54.470Z,102921.72
2023-02-13T19:09:59.881Z,102939.59
2023-02-13T19:13:06.443Z,102934.16
2023-02-13T19:16:16.821Z,102935.94
2023-02-13T19:19:21.868Z,102933.94
2023-02-13T19:22:27.076Z,102934.72
2023-02-13T19:25:32.632Z,102938.22
2023-02-13T19:28:39.059Z,102937.38
2023-02-13T19:31:44.209Z,102936.75
2023-02-13T19:34:49.598Z,102946.09
2023-02-13T19:37:54.731Z,102943.97
2023-02-13T19:41:04.942Z,102944.72
2023-02-13T19:44:11.402Z,102958.50
2023-02-13T19:47:16.201Z,102959.19
2023-02-13T19:50:22.493Z,102964.72
2023-02-13T19:53:28.014Z,102979.22
2023-02-13T19:56:36.764Z,102961.38
2023-02-13T19:59:43.590Z,102979.38
2023-02-13T20:02:48.997Z,102978.53
2023-02-13T20:05:54.313Z,102975.91
2023-02-13T20:09:01.708Z,102986.34
2023-02-13T20:12:07.462Z,102989.75
2023-02-13T20:15:14.008Z,103005.81
2023-02-13T20:18:19.761Z,103006.44
2023-02-13T20:21:26.356Z,103026.81
2023-02-13T20:24:33.027Z,103017.00
2023-02-13T20:27:42.522Z,103024.47
2023-02-13T20:30:49.994Z,103017.88
2023-02-13T20:33:55.117Z,103010.88
2023-02-13T20:37:00.449Z,103019.28
2023-02-13T20:40:05.833Z,103016.66
2023-02-13T20:43:11.559Z,103021.75
2023-02-13T20:46:18.452Z,103026.03
2023-02-13T20:49:23.542Z,103022.66
2023-02-13T20:52:28.761Z,103027.06
2023-02-13T20:55:34.269Z,103030.84
2023-02-13T20:58:40.052Z,103029.91
2023-02-13T21:01:46.698Z,103022.78
2023-02-13T21:04:52.323Z,103035.59
2023-02-13T21:07:57.758Z,103040.63
2023-02-13T21:11:03.173Z,103030.44
2023-02-13T21:14:08.651Z,103038.75
2023-02-13T21:17:15.275Z,103038.06
2023-02-13T21:20:20.475Z,103050.53
2023-02-13T21:23:25.711Z,103056.38
2023-02-13T21:26:31.019Z,103054.59
2023-02-13T21:29:38.080Z,103057.41
2023-02-13T21:32:44.642Z,103048.97
2023-02-13T21:35:49.393Z,103055.22
2023-02-13T21:38:54.510Z,103062.19
2023-02-13T21:41:59.687Z,103071.78
2023-02-13T21:45:05.336Z,103064.25
2023-02-13T21:48:16.434Z,103064.81
2023-02-13T21:51:22.995Z,103064.09
2023-02-13T21:54:28.447Z,103054.16
2023-02-13T21:57:33.949Z,103070.19
2023-02-13T22:00:39.222Z,103069.25
2023-02-13T22:03:46.121Z,103080.47
2023-02-13T22:06:52.451Z,103069.25
2023-02-13T22:09:57.698Z,103074.31
2023-02-13T22:13:02.737Z,103083.56
2023-02-13T22:16:09.640Z,103088.69
2023-02-13T22:19:17.027Z,103082.78
2023-02-13T22:22:22.508Z,103085.31
2023-02-13T22:25:29.055Z,103080.84
2023-02-13T22:28:34.761Z,103084.09
2023-02-13T22:31:41.777Z,103099.16
2023-02-13T22:34:48.146Z,103098.31
2023-02-13T22:37:53.175Z,103094.47
2023-02-13T22:40:58.228Z,103085.19
2023-02-13T22:44:03.536Z,103093.38
2023-02-13T22:47:08.728Z,103096.78
2023-02-13T22:50:16.057Z,103105.94
2023-02-13T22:53:21.575Z,103100.13
2023-02-13T22:56:27.222Z,103103.41
2023-02-13T22:59:38.168Z,103100.81
2023-02-13T23:02:44.360Z,103101.13
2023-02-13T23:05:50.955Z,103103.41
2023-02-13T23:08:57.871Z,103115.78
2023-02-13T23:12:20.483Z,103118.59
2023-02-13T23:15:25.540Z,103117.16
2023-02-13T23:18:30.731Z,103122.94
2023-02-13T23:21:37.224Z,103126.00
2023-02-13T23:24:42.934Z,103126.78
2023-02-13T23:27:48.286Z,103135.28
2023-02-13T23:30:53.450Z,103144.72
2023-02-13T23:33:58.628Z,103148.16
2023-02-13T23:37:05.315Z,103154.91
2023-02-13T23:40:13.431Z,103147.09
2023-02-13T23:43:18.587Z,103136.72
2023-02-13T23:46:23.777Z,103139.25
2023-02-13T23:49:29.042Z,103149.28
2023-02-13T23:52:35.523Z,103159.50
2023-02-13T23:55:41.000Z,103157.94
2023-02-13T23:58:46.228Z,103170.97
